University Oxford Airport
KUOX : now visible

Airfield :











YOU CAN JOIN US ON...

 
LOGIN :

Register | Disclaimer

   EN    FR    IT 

 









Legend :    VFR   Marginal VFR   IFR   Intensive IFR   Very Intensive IFR
Visi :
Ceiling :
>= 8 km
>= 3000ft
5 to 8 km
1000 to 3000 ft
1500m to 5 km
500 to 1000 ft
800 to 1500m
200 to 500 ft
< 800m
< 200 ft
Symbols :   Thunderstorms  Fog  Heavy snow  Heavy precipitations  Wind > 20 kt






- Airport Elevation : 452 ft


KUOX - University Oxford

CURRENT METAR :
  • 101535Z AUTO VRB06G14KT 5SM -RA FEW015 FEW019 SCT034 01/M01 A3032 RMK AO2

EXPIRED METARs :
  • 101515Z AUTO 36011G19KT 4SM -RA SCT016 BKN035 BKN060 01/M00 A3031 RMK AO2
  • 101455Z AUTO 01011KT 8SM -RA SCT014 BKN055 BKN065 02/M00 A3028 RMK AO2
  • 101435Z AUTO 03012KT 9SM FEW049 SCT055 BKN065 02/M00 A3021 RMK AO2
  • 101415Z AUTO 01011G19KT 330V030 9SM FEW055 BKN070 OVC080 02/M00 A3024 RMK AO2
  • 101355Z AUTO 02011KT 10SM -DZ FEW055 OVC075 02/00 A3022 RMK AO2
  • 101335Z AUTO 02012G21KT 10SM SCT014 BKN055 OVC080 02/01 A3020 RMK AO2
  • 101315Z AUTO 36009G18KT 330V030 10SM BKN013 BKN044 OVC075 03/02 A3020 RMK AO2
  • 101255Z AUTO 36012G23KT 340V040 10SM SCT014 SCT044 OVC075 03/02 A3017 RMK AO2

TAF N/A



MET'MAP, your aeronautical weather chart ! - Copyright ORBIFLY December 2007 - Disclaimer

ORBIFLY MET'MAP TEAM :

Programming & Development : Alexandra Zaïnal
Concept & original design : Baudouin d'Aumeries
Assistance for programming : Marc-Olivier Méhu
Technical & hardware support : Manuel Goepfert

Contact : metmap@orbifly.com




SOURCES & CREDITS :

   NOAA       Earth
Advisory